Time;durP1;ratioP1;P1;durP2;ratioP2;P2;SDS_P1;SDS_P2;PMS_P1;PMS_P2;Temp;Humidity;BMP_temperature;BMP_pressure;BME280_temperature;BME280_humidity;BME280_pressure;Samples;Min_cycle;Max_cycle;Signal;HPM_P1;HPM_P2
2023/12/10 00:00:09;;;;;;;21.98;5.10;;;9.40;99.90;;;8.79;100.00;101185.09;4153758;28;20053;-76
2023/12/10 00:02:10;;;;;;;28.48;4.22;;;9.50;99.90;;;8.85;100.00;101190.66;4153578;28;20109;-76
2023/12/10 00:04:10;;;;;;;24.73;4.65;;;9.50;99.90;;;8.89;100.00;101178.91;4154833;28;20026;-76
2023/12/10 00:06:11;;;;;;;33.47;6.13;;;9.50;99.90;;;8.94;100.00;101188.19;4154952;28;20026;-76
2023/12/10 00:08:12;;;;;;;25.45;6.13;;;9.60;99.90;;;8.99;100.00;101192.06;4154897;28;20508;-76
2023/12/10 00:10:13;;;;;;;32.55;5.32;;;9.60;99.90;;;9.06;100.00;101197.63;4154766;28;20049;-76
2023/12/10 00:12:14;;;;;;;26.50;6.70;;;9.70;99.90;;;9.01;100.00;101184.06;4153748;28;20108;-76
2023/12/10 00:14:15;;;;;;;27.48;5.72;;;9.70;99.90;;;9.06;100.00;101206.38;4149959;28;20090;-76
2023/12/10 00:16:15;;;;;;;28.60;4.03;;;9.70;99.90;;;9.08;100.00;101193.09;4163007;28;20045;-76
2023/12/10 00:18:16;;;;;;;30.40;5.10;;;9.70;99.90;;;9.07;100.00;101213.31;4152395;28;20038;-76
2023/12/10 00:20:17;;;;;;;35.50;4.95;;;9.70;99.90;;;9.09;100.00;101202.63;4152328;28;20049;-76
2023/12/10 00:22:18;;;;;;;26.60;4.82;;;9.70;99.90;;;9.07;100.00;101199.31;4153206;28;20029;-76
2023/12/10 00:24:21;;;;;;;29.08;6.78;;;9.70;99.90;;;9.02;100.00;101198.88;4148164;28;20030;-76
2023/12/10 00:26:22;;;;;;;39.15;10.30;;;9.70;99.90;;;9.06;100.00;101211.63;4149039;28;20021;-76
2023/12/10 00:28:23;;;;;;;25.63;6.20;;;9.60;99.90;;;9.04;100.00;101220.63;4153454;28;20034;-76
2023/12/10 00:30:25;;;;;;;31.33;6.40;;;9.60;99.90;;;8.97;100.00;101224.75;4152235;28;20026;-76
2023/12/10 00:32:26;;;;;;;30.63;5.68;;;9.60;99.90;;;8.99;100.00;101221.00;4152322;28;20030;-76
2023/12/10 00:34:27;;;;;;;31.35;5.60;;;9.60;99.90;;;9.07;100.00;101221.19;4147759;28;20056;-76
2023/12/10 00:36:28;;;;;;;29.48;4.72;;;9.60;99.90;;;9.19;100.00;101221.91;4151460;28;20051;-76
2023/12/10 00:38:29;;;;;;;29.88;5.95;;;9.70;99.90;;;9.23;100.00;101213.59;4153513;28;20072;-76
2023/12/10 00:40:29;;;;;;;29.60;5.18;;;9.80;99.90;;;9.26;100.00;101215.94;4153510;28;20030;-76
2023/12/10 00:42:30;;;;;;;22.25;4.70;;;9.80;99.90;;;9.31;100.00;101215.56;4152161;28;20037;-76
2023/12/10 00:44:31;;;;;;;29.08;5.50;;;9.90;99.90;;;9.35;100.00;101215.13;4149026;28;20023;-76
2023/12/10 00:46:32;;;;;;;32.10;4.63;;;10.00;99.90;;;9.37;100.00;101201.84;4153481;28;20036;-76
2023/12/10 00:48:35;;;;;;;31.75;5.05;;;10.00;99.90;;;9.38;100.00;101208.75;4151979;28;20030;-76
2023/12/10 00:50:36;;;;;;;30.65;5.40;;;10.00;99.90;;;9.29;100.00;101205.16;4152070;28;20091;-76
2023/12/10 00:52:37;;;;;;;28.98;6.05;;;10.00;99.90;;;9.24;100.00;101203.91;4151409;28;20030;-76
2023/12/10 00:54:38;;;;;;;23.00;4.88;;;9.90;99.90;;;9.22;100.00;101201.41;4151311;28;20097;-76
2023/12/10 00:56:41;;;;;;;19.60;4.95;;;9.80;99.90;;;9.21;100.00;101205.00;4152584;28;20045;-76
2023/12/10 00:58:43;;;;;;;20.42;4.65;;;9.80;99.90;;;9.21;100.00;101212.06;4152163;28;20458;-76
2023/12/10 01:00:44;;;;;;;24.88;4.22;;;9.80;99.90;;;9.17;100.00;101200.97;4153064;28;20019;-76
2023/12/10 01:02:46;;;;;;;32.42;6.00;;;9.80;99.90;;;9.16;100.00;101212.50;4153265;28;20036;-76
2023/12/10 01:04:46;;;;;;;34.67;6.65;;;9.80;99.90;;;9.13;100.00;101214.56;4142661;28;20018;-76
2023/12/10 01:06:49;;;;;;;34.15;5.63;;;9.80;99.90;;;9.10;100.00;101209.56;4153103;28;20057;-76
2023/12/10 01:08:49;;;;;;;25.92;3.90;;;9.80;99.90;;;9.10;100.00;101209.56;4151793;28;20034;-76
2023/12/10 01:10:50;;;;;;;27.80;5.63;;;9.80;99.90;;;9.10;100.00;101207.78;4152016;28;20449;-76
2023/12/10 01:12:51;;;;;;;30.58;5.82;;;9.80;99.90;;;9.13;100.00;101220.66;4151882;28;20060;-76
2023/12/10 01:14:52;;;;;;;29.13;4.43;;;9.80;99.90;;;9.13;100.00;101220.66;4143964;28;20026;-76
2023/12/10 01:16:53;;;;;;;27.05;4.78;;;9.80;99.90;;;9.17;100.00;101226.50;4106982;28;1255357;-76
2023/12/10 01:18:54;;;;;;;29.48;4.90;;;9.80;99.90;;;9.18;100.00;101221.06;4152527;28;20034;-76
2023/12/10 01:20:54;;;;;;;27.90;5.00;;;9.80;99.90;;;9.22;100.00;101224.28;4153945;28;20041;-76
2023/12/10 01:22:56;;;;;;;35.50;6.32;;;9.80;99.90;;;9.24;100.00;101220.53;4153735;28;20032;-76
2023/12/10 01:24:58;;;;;;;29.13;4.88;;;9.90;99.90;;;9.24;100.00;101219.69;4145146;28;20018;-76
2023/12/10 01:26:59;;;;;;;27.98;6.40;;;9.90;99.90;;;9.25;100.00;101216.09;4136106;28;20049;-76
2023/12/10 01:29:00;;;;;;;40.35;6.30;;;9.90;99.90;;;9.22;100.00;101208.47;4153630;28;20053;-77
2023/12/10 01:31:01;;;;;;;27.50;5.95;;;9.90;99.90;;;9.22;100.00;101208.47;4153462;28;20374;-76
2023/12/10 01:33:02;;;;;;;28.65;5.68;;;9.80;99.90;;;9.12;100.00;101210.25;4152225;28;20022;-76
2023/12/10 01:35:04;;;;;;;38.08;5.82;;;9.80;99.90;;;9.07;100.00;101212.47;4152298;28;20124;-76
2023/12/10 01:37:05;;;;;;;26.85;5.40;;;9.70;99.90;;;9.00;100.00;101204.28;4153619;28;20049;-76
2023/12/10 01:39:06;;;;;;;36.58;6.70;;;9.70;99.90;;;9.04;100.00;101216.19;4152305;28;20037;-76
2023/12/10 01:41:07;;;;;;;28.42;5.30;;;9.70;99.90;;;8.96;100.00;101218.66;4152049;28;20018;-76
2023/12/10 01:43:09;;;;;;;39.42;6.80;;;9.60;99.90;;;8.97;100.00;101214.22;4152340;28;20065;-76
2023/12/10 01:45:10;;;;;;;37.95;6.13;;;9.50;99.90;;;8.97;100.00;101207.16;4153324;28;20026;-76
2023/12/10 01:47:11;;;;;;;41.33;8.25;;;9.60;99.90;;;8.93;100.00;101202.31;4151492;28;20036;-76
2023/12/10 01:49:14;;;;;;;33.88;6.35;;;9.50;99.90;;;8.96;100.00;101210.75;4151765;28;20120;-76
2023/12/10 01:51:15;;;;;;;37.50;5.78;;;9.60;99.90;;;8.99;100.00;101209.69;4153743;28;20034;-76
2023/12/10 01:53:16;;;;;;;30.85;6.22;;;9.50;99.90;;;9.04;100.00;101213.56;4152532;28;20026;-76
2023/12/10 01:55:18;;;;;;;35.30;5.97;;;9.60;99.90;;;9.06;100.00;101224.78;4151998;28;20458;-76
2023/12/10 01:57:19;;;;;;;34.17;5.65;;;9.60;99.90;;;9.10;100.00;101220.94;4151861;28;20022;-76
2023/12/10 01:59:22;;;;;;;43.03;6.55;;;9.70;99.90;;;9.08;100.00;101222.84;4152092;28;20109;-76
2023/12/10 02:01:24;;;;;;;38.22;4.70;;;9.70;99.90;;;9.02;100.00;101223.38;4153192;28;20026;-76
2023/12/10 02:03:25;;;;;;;35.75;6.10;;;9.70;99.90;;;9.01;100.00;101220.91;4151757;28;20604;-76
2023/12/10 02:05:26;;;;;;;37.83;5.13;;;9.60;99.90;;;9.09;100.00;101224.50;4152846;28;20117;-76
2023/12/10 02:07:27;;;;;;;36.85;6.57;;;9.70;99.90;;;9.14;100.00;101239.91;4135540;28;20034;-76
2023/12/10 02:09:28;;;;;;;43.45;5.70;;;9.70;99.90;;;9.31;100.00;101234.00;4153195;28;20045;-76
2023/12/10 02:11:29;;;;;;;35.20;6.13;;;9.90;99.90;;;9.33;100.00;101237.31;4151997;28;20038;-76
2023/12/10 02:13:30;;;;;;;35.05;6.00;;;9.90;99.90;;;9.24;100.00;101231.06;4152948;28;20030;-76
2023/12/10 02:15:31;;;;;;;31.63;5.35;;;9.90;99.90;;;9.24;100.00;101230.22;4152871;28;20400;-76
2023/12/10 02:17:31;;;;;;;34.15;4.80;;;9.90;99.90;;;9.27;100.00;101222.06;4152823;28;20026;-76
2023/12/10 02:19:33;;;;;;;27.20;5.25;;;9.80;99.90;;;9.31;100.00;101219.03;4135027;28;20022;-76
2023/12/10 02:21:37;;;;;;;35.13;5.53;;;9.90;99.90;;;9.32;100.00;101222.47;4151708;28;20444;-76
2023/12/10 02:23:45;;;;;;;42.30;5.30;;;9.90;99.90;;;9.26;100.00;101210.69;4151876;28;20505;-76
2023/12/10 02:25:46;;;;;;;43.35;5.47;;;9.90;99.90;;;9.28;100.00;101218.47;4152734;28;20276;-76
2023/12/10 02:27:47;;;;;;;35.15;5.65;;;9.90;99.90;;;9.20;100.00;101200.69;4151577;28;20030;-77
2023/12/10 02:29:49;;;;;;;40.45;6.10;;;9.80;99.90;;;9.25;100.00;101205.56;4151308;28;20092;-76
2023/12/10 02:31:50;;;;;;;38.72;6.75;;;9.80;99.90;;;9.42;100.00;101204.91;4151637;28;20083;-76
2023/12/10 02:33:51;;;;;;;32.65;5.60;;;9.90;99.90;;;9.29;100.00;101205.16;4152633;28;20552;-76
2023/12/10 02:35:52;;;;;;;35.78;6.72;;;9.90;99.90;;;9.24;100.00;101198.63;4152679;28;20030;-76
2023/12/10 02:37:53;;;;;;;28.67;3.92;;;9.90;99.90;;;9.20;100.00;101200.69;4151344;28;20484;-76
2023/12/10 02:39:54;;;;;;;35.33;4.63;;;9.90;99.90;;;9.20;100.00;101199.91;4151520;28;20030;-76
2023/12/10 02:41:56;;;;;;;34.20;6.13;;;9.80;99.90;;;9.23;100.00;101189.91;4151469;28;20026;-76
2023/12/10 02:43:56;;;;;;;27.48;5.35;;;9.80;99.90;;;9.21;100.00;101196.28;4151385;28;20022;-76
2023/12/10 02:45:57;;;;;;;26.40;5.47;;;9.80;99.90;;;9.12;100.00;101191.81;4151262;28;20476;-76
2023/12/10 02:47:58;;;;;;;30.67;4.95;;;9.80;99.90;;;9.08;100.00;101195.72;4143642;28;20030;-76
2023/12/10 02:49:59;;;;;;;28.92;6.00;;;9.70;99.90;;;8.99;100.00;101180.75;4152355;28;20049;-76
2023/12/10 02:52:00;;;;;;;24.80;4.03;;;9.70;99.90;;;8.90;100.00;101188.44;4150732;28;20025;-76
2023/12/10 02:54:01;;;;;;;27.83;4.10;;;9.60;99.90;;;8.93;100.00;101184.72;4151194;28;20041;-76
2023/12/10 02:56:02;;;;;;;29.58;4.50;;;9.60;99.90;;;8.94;100.00;101177.66;4151456;28;20033;-76
2023/12/10 02:58:03;;;;;;;28.55;5.05;;;9.60;99.90;;;8.88;100.00;101184.28;4152345;28;20489;-76
2023/12/10 03:00:07;;;;;;;28.58;5.47;;;9.50;99.90;;;8.82;100.00;101177.78;4152568;28;20029;-76
2023/12/10 03:02:08;;;;;;;35.63;4.88;;;9.50;99.90;;;8.79;100.00;101175.41;4151261;28;20484;-76
2023/12/10 03:04:09;;;;;;;26.35;4.18;;;9.40;99.90;;;8.78;100.00;101184.25;4152184;28;20044;-76
2023/12/10 03:06:10;;;;;;;22.63;4.88;;;9.40;99.90;;;8.71;100.00;101175.25;4151208;28;20501;-76
2023/12/10 03:08:11;;;;;;;26.55;6.25;;;9.30;99.90;;;8.62;100.00;101176.06;4152565;28;20482;-76
2023/12/10 03:10:12;;;;;;;26.38;5.38;;;9.30;99.90;;;8.56;100.00;101171.31;4151163;28;20026;-76
2023/12/10 03:12:13;;;;;;;38.80;6.43;;;9.20;99.90;;;8.56;100.00;101171.31;4151152;28;20030;-76
2023/12/10 03:14:14;;;;;;;26.73;5.20;;;9.20;99.90;;;8.54;100.00;101164.53;4167420;28;20115;-76
2023/12/10 03:16:15;;;;;;;33.88;6.95;;;9.10;99.90;;;8.59;100.00;101163.16;4152156;28;20058;-75
2023/12/10 03:18:15;;;;;;;36.50;4.95;;;9.20;99.90;;;8.57;100.00;101162.44;4150716;28;20415;-76
2023/12/10 03:20:17;;;;;;;32.03;4.97;;;9.20;99.90;;;8.58;100.00;101164.13;4145845;28;20103;-76
2023/12/10 03:22:17;;;;;;;34.22;5.20;;;9.20;99.90;;;8.56;100.00;101158.19;4151079;28;20628;-76
2023/12/10 03:24:18;;;;;;;53.30;14.23;;;9.20;99.90;;;8.54;100.00;101160.09;4150785;28;20026;-77
2023/12/10 03:26:19;;;;;;;44.28;10.55;;;9.20;99.90;;;8.55;100.00;101153.88;4150775;28;20029;-76
2023/12/10 03:28:20;;;;;;;47.25;8.35;;;9.20;99.90;;;8.53;100.00;101163.69;4167242;28;20040;-76
2023/12/10 03:30:21;;;;;;;32.45;8.30;;;9.10;99.90;;;8.53;100.00;101154.97;4150988;28;20034;-76
2023/12/10 03:32:21;;;;;;;43.97;8.05;;;9.10;99.90;;;8.51;100.00;101157.72;4152140;28;20481;-76
2023/12/10 03:34:24;;;;;;;30.35;6.70;;;9.10;99.90;;;8.50;100.00;101161.34;4151928;28;20167;-76
2023/12/10 03:36:25;;;;;;;32.55;6.03;;;9.10;99.90;;;8.46;100.00;101153.81;4151919;28;20030;-76
2023/12/10 03:38:26;;;;;;;36.30;6.05;;;9.10;99.90;;;8.46;100.00;101157.28;4152073;28;20023;-76
2023/12/10 03:40:27;;;;;;;33.95;5.55;;;9.10;99.90;;;8.58;100.00;101164.13;4152002;28;20452;-77
2023/12/10 03:42:28;;;;;;;38.95;6.25;;;9.10;99.90;;;8.69;100.00;101157.94;4150803;28;20532;-76
2023/12/10 03:44:31;;;;;;;33.03;5.65;;;9.20;99.90;;;8.68;100.00;101154.47;4151942;28;20025;-76
2023/12/10 03:46:32;;;;;;;28.52;5.32;;;9.30;99.90;;;8.79;100.00;101158.78;4150701;28;20033;-76
2023/12/10 03:48:33;;;;;;;30.27;4.95;;;9.30;99.90;;;8.87;100.00;101157.16;4151780;28;20029;-76
2023/12/10 03:50:34;;;;;;;33.35;4.68;;;9.40;99.90;;;8.94;100.00;101151.34;4151909;28;20096;-76
2023/12/10 03:52:35;;;;;;;33.42;5.78;;;9.50;99.90;;;9.02;100.00;101156.78;4150082;28;20103;-77
2023/12/10 03:54:35;;;;;;;39.08;5.55;;;9.50;99.90;;;9.03;100.00;101159.25;4152182;28;20036;-76
2023/12/10 03:56:36;;;;;;;35.92;6.30;;;9.60;99.90;;;9.08;100.00;101153.59;4150867;28;20032;-76
2023/12/10 03:58:37;;;;;;;32.90;4.53;;;9.60;99.90;;;9.10;100.00;101151.66;4152008;28;20037;-76
2023/12/10 04:00:38;;;;;;;39.10;6.85;;;9.70;99.90;;;9.12;100.00;101149.72;4150706;28;20022;-76
2023/12/10 04:02:39;;;;;;;30.00;6.30;;;9.70;99.90;;;9.22;100.00;101161.09;4150785;28;20021;-76
2023/12/10 04:04:39;;;;;;;31.10;5.25;;;9.80;99.90;;;9.27;100.00;101164.16;4151731;28;20084;-76
2023/12/10 04:06:42;;;;;;;42.08;6.47;;;9.80;99.90;;;9.25;100.00;101150.31;4151856;28;20389;-76
2023/12/10 04:08:43;;;;;;;28.20;5.28;;;9.80;99.90;;;9.27;100.00;101140.44;4151728;28;20030;-76
2023/12/10 04:10:44;;;;;;;28.90;4.57;;;9.80;99.90;;;9.30;100.00;101146.28;4154878;28;20030;-76
2023/12/10 04:12:45;;;;;;;33.45;7.03;;;9.90;99.90;;;9.36;100.00;101137.00;4153493;28;20034;-77
2023/12/10 04:14:47;;;;;;;37.58;6.38;;;9.90;99.90;;;9.44;100.00;101129.22;4153643;28;20392;-76
2023/12/10 04:16:48;;;;;;;42.72;6.40;;;10.00;99.90;;;9.47;100.00;101128.94;4169725;28;20053;-76
2023/12/10 04:18:48;;;;;;;30.33;5.80;;;10.00;99.90;;;9.56;100.00;101128.09;4154547;28;20037;-76
2023/12/10 04:20:49;;;;;;;27.10;4.43;;;10.10;99.90;;;9.60;100.00;101118.97;4153675;28;20021;-76
2023/12/10 04:22:50;;;;;;;29.25;4.18;;;10.10;99.90;;;9.58;100.00;101131.47;4153388;28;20026;-76
2023/12/10 04:24:51;;;;;;;35.60;5.15;;;10.10;99.90;;;9.60;100.00;101129.50;4154497;28;20030;-76
2023/12/10 04:26:52;;;;;;;31.35;4.63;;;10.20;99.90;;;9.57;100.00;101119.25;4153285;28;20018;-76
2023/12/10 04:28:52;;;;;;;33.83;4.40;;;10.10;99.90;;;9.57;100.00;101113.97;4154635;28;20029;-76
2023/12/10 04:30:53;;;;;;;28.73;5.63;;;10.10;99.90;;;9.63;100.00;101113.41;4152939;28;20026;-76
2023/12/10 04:32:54;;;;;;;33.47;4.68;;;10.10;99.90;;;9.59;100.00;101111.22;4153797;28;20033;-76
2023/12/10 04:34:55;;;;;;;29.98;5.78;;;10.10;99.90;;;9.63;100.00;101107.31;4153201;28;20033;-76
2023/12/10 04:36:56;;;;;;;34.60;5.90;;;10.10;99.90;;;9.63;100.00;101097.63;4153293;28;20029;-76
2023/12/10 04:38:57;;;;;;;32.50;5.35;;;10.20;99.90;;;9.64;100.00;101094.03;4154443;28;20033;-76
2023/12/10 04:40:58;;;;;;;35.90;5.32;;;10.20;99.90;;;9.67;100.00;101091.09;4153793;28;20482;-76
2023/12/10 04:42:58;;;;;;;26.27;4.10;;;10.20;99.90;;;9.66;100.00;101085.97;4153141;28;20018;-76
2023/12/10 04:44:59;;;;;;;28.65;4.53;;;10.20;99.90;;;9.55;100.00;101078.22;4153117;28;20029;-77
2023/12/10 04:47:00;;;;;;;32.08;4.35;;;10.10;99.90;;;9.41;100.00;101072.41;4154294;28;20022;-76
2023/12/10 04:49:01;;;;;;;28.58;4.60;;;10.00;99.90;;;9.34;100.00;101073.13;4152928;28;20036;-76
2023/12/10 04:51:02;;;;;;;32.55;5.38;;;9.90;99.90;;;9.25;100.00;101063.44;4153004;28;20026;-76
2023/12/10 04:53:03;;;;;;;30.73;6.30;;;9.80;99.90;;;9.25;100.00;101066.06;4136551;28;20026;-76
2023/12/10 04:55:05;;;;;;;28.27;4.40;;;9.80;99.90;;;9.18;100.00;101060.53;4147523;28;20025;-77
2023/12/10 04:57:06;;;;;;;30.85;5.07;;;9.80;99.90;;;9.12;100.00;101057.59;4154341;28;20040;-76
2023/12/10 04:59:06;;;;;;;31.10;5.82;;;9.70;99.90;;;9.07;100.00;101054.56;4136761;28;20030;-76
2023/12/10 05:01:07;;;;;;;26.83;3.83;;;9.70;99.90;;;8.99;100.00;101055.25;4153985;28;20032;-77
2023/12/10 05:03:08;;;;;;;28.17;4.97;;;9.60;99.90;;;8.90;100.00;101035.88;4153999;28;20033;-76
2023/12/10 05:05:09;;;;;;;24.20;5.30;;;9.50;99.90;;;8.80;100.00;101024.53;4152733;28;20033;-76
2023/12/10 05:07:10;;;;;;;21.85;4.45;;;9.50;99.90;;;8.83;100.00;101026.03;4152635;28;20026;-76
2023/12/10 05:09:11;;;;;;;24.55;5.20;;;9.40;99.90;;;8.77;100.00;101032.69;4153989;28;20034;-76
2023/12/10 05:11:12;;;;;;;33.05;4.97;;;9.40;99.90;;;8.75;100.00;101025.91;4153923;28;20495;-76
2023/12/10 05:13:13;;;;;;;31.40;6.13;;;9.30;99.90;;;8.75;100.00;101018.81;4152692;28;20026;-76
2023/12/10 05:15:14;;;;;;;30.42;5.00;;;9.40;99.90;;;8.66;100.00;101017.00;4153787;28;20018;-76
2023/12/10 05:17:15;;;;;;;29.15;4.45;;;9.30;99.90;;;8.58;100.00;101018.66;4153496;28;20052;-76
2023/12/10 05:19:16;;;;;;;35.75;6.00;;;9.20;99.90;;;8.54;100.00;101026.00;4152428;28;20029;-76
2023/12/10 05:21:16;;;;;;;31.77;4.90;;;9.20;99.90;;;8.52;100.00;101035.00;4152585;28;20022;-76
2023/12/10 05:23:17;;;;;;;24.27;4.22;;;9.10;99.90;;;8.44;100.00;101027.78;4152332;28;20022;-76
2023/12/10 05:25:18;;;;;;;28.10;4.97;;;9.10;99.90;;;8.37;100.00;101021.41;4153718;28;20036;-76
2023/12/10 05:27:19;;;;;;;25.27;5.20;;;9.00;99.90;;;8.31;100.00;101021.94;4153583;28;20038;-77
2023/12/10 05:29:20;;;;;;;29.80;4.75;;;9.00;99.90;;;8.25;100.00;101033.78;4153529;28;20030;-76
2023/12/10 05:31:21;;;;;;;32.75;5.35;;;8.90;99.90;;;8.29;100.00;101043.13;4153524;28;20026;-76
2023/12/10 05:33:22;;;;;;;41.67;5.80;;;8.90;99.90;;;8.29;100.00;101040.50;4153625;28;20099;-76
2023/12/10 05:35:23;;;;;;;36.17;6.10;;;8.90;99.90;;;8.35;100.00;101036.47;4152444;28;20033;-76
2023/12/10 05:37:23;;;;;;;30.38;6.38;;;8.90;99.90;;;8.41;100.00;101030.69;4168714;28;20484;-77
2023/12/10 05:39:25;;;;;;;38.10;5.40;;;9.00;99.90;;;8.35;100.00;101039.13;4152316;28;20026;-77
2023/12/10 05:41:26;;;;;;;31.35;5.55;;;8.90;99.90;;;8.31;100.00;101035.91;4153457;28;20037;-76
2023/12/10 05:43:26;;;;;;;27.65;4.57;;;8.90;99.90;;;8.32;100.00;101031.50;4152246;28;20026;-76
2023/12/10 05:45:28;;;;;;;34.17;5.32;;;8.90;99.90;;;8.32;100.00;101024.44;4153373;28;20033;-76
2023/12/10 05:47:29;;;;;;;32.08;4.75;;;8.90;99.90;;;8.34;100.00;101019.03;4153349;28;20458;-76
2023/12/10 05:49:30;;;;;;;33.85;5.72;;;8.90;99.90;;;8.33;100.00;101020.03;4152031;28;20057;-76
2023/12/10 05:51:31;;;;;;;36.92;5.25;;;8.90;99.90;;;8.32;100.00;101016.56;4152718;28;20029;-76
2023/12/10 05:53:32;;;;;;;30.63;4.05;;;8.90;99.90;;;8.36;100.00;101025.03;4151998;28;20034;-77
2023/12/10 05:55:32;;;;;;;34.33;5.63;;;8.90;99.90;;;8.33;100.00;101020.84;4153098;28;20056;-76
2023/12/10 05:57:33;;;;;;;31.90;5.95;;;8.90;99.90;;;8.28;100.00;101007.28;4153028;28;20076;-76
2023/12/10 05:59:34;;;;;;;44.75;5.72;;;8.90;99.90;;;8.28;100.00;101016.94;4150671;28;20045;-76
2023/12/10 06:01:35;;;;;;;31.10;5.30;;;8.90;99.90;;;8.30;100.00;101012.41;4148213;28;20022;-76
2023/12/10 06:03:36;;;;;;;33.33;6.30;;;8.90;99.90;;;8.34;100.00;101005.91;4151760;28;20097;-76
2023/12/10 06:05:37;;;;;;;41.58;8.00;;;8.90;99.90;;;8.38;100.00;101012.56;4151652;28;20033;-77
2023/12/10 06:07:38;;;;;;;42.05;6.80;;;9.00;99.90;;;8.43;100.00;101012.97;4151819;28;20032;-76
2023/12/10 06:09:39;;;;;;;37.80;5.15;;;9.00;99.90;;;8.36;100.00;101000.53;4153062;28;20490;-76
2023/12/10 06:11:40;;;;;;;26.02;4.63;;;9.00;99.90;;;8.28;100.00;101009.06;4151806;28;20029;-76
2023/12/10 06:13:41;;;;;;;30.95;4.30;;;8.90;99.90;;;8.29;100.00;101008.94;4151672;28;20092;-76
2023/12/10 06:15:44;;;;;;;38.95;5.35;;;8.90;99.90;;;8.36;100.00;101003.16;4151621;28;20401;-76
2023/12/10 06:17:45;;;;;;;43.35;5.80;;;8.90;99.90;;;8.31;100.00;100998.28;4151724;28;20034;-77
2023/12/10 06:19:46;;;;;;;29.70;5.28;;;8.90;99.90;;;8.31;100.00;101000.91;4151601;28;20022;-77
2023/12/10 06:21:47;;;;;;;32.13;5.78;;;8.90;99.90;;;8.30;100.00;100994.00;4151619;28;20018;-77
2023/12/10 06:23:48;;;;;;;34.15;5.80;;;8.90;99.90;;;8.26;100.00;100995.22;4168089;28;20404;-76
2023/12/10 06:25:50;;;;;;;31.70;4.30;;;8.90;99.90;;;8.20;100.00;100977.34;4152775;28;20104;-76
2023/12/10 06:27:51;;;;;;;36.17;5.25;;;8.90;99.90;;;8.22;100.00;100985.91;4152757;28;20488;-76
2023/12/10 06:29:52;;;;;;;32.38;5.50;;;8.90;99.90;;;8.23;100.00;100990.22;4151303;28;20033;-76
2023/12/10 06:31:53;;;;;;;27.85;4.63;;;8.80;99.90;;;8.22;100.00;100983.28;4152512;28;20030;-76
2023/12/10 06:33:53;;;;;;;30.80;5.22;;;8.80;99.90;;;8.18;100.00;100984.56;4152645;28;20029;-76
2023/12/10 06:35:54;;;;;;;35.97;5.78;;;8.80;99.90;;;8.14;100.00;100977.88;4152693;28;20030;-76
2023/12/10 06:37:55;;;;;;;30.52;5.93;;;8.80;99.90;;;8.23;100.00;100977.09;4152467;28;20037;-77
2023/12/10 06:39:56;;;;;;;40.47;6.78;;;8.80;99.90;;;8.18;100.00;100974.03;4152735;28;20396;-77
2023/12/10 06:41:57;;;;;;;30.13;4.75;;;8.80;99.90;;;8.20;100.00;100972.94;4152695;28;20062;-76
2023/12/10 06:43:58;;;;;;;44.15;5.97;;;8.80;99.90;;;8.16;100.00;100949.66;4152600;28;20022;-76
2023/12/10 06:45:59;;;;;;;30.25;5.28;;;8.80;99.90;;;8.16;100.00;100952.31;4140267;28;20085;-77
2023/12/10 06:48:00;;;;;;;32.05;4.45;;;8.70;99.90;;;8.16;100.00;100947.03;4151522;28;20084;-76
2023/12/10 06:50:01;;;;;;;28.00;4.70;;;8.70;99.90;;;8.14;100.00;100946.34;4152346;28;20026;-77
2023/12/10 06:52:02;;;;;;;34.50;4.47;;;8.70;99.90;;;8.11;100.00;100942.22;4151843;28;20045;-76
2023/12/10 06:54:02;;;;;;;47.08;7.50;;;8.70;99.90;;;8.12;100.00;100945.66;4151068;28;20038;-76
2023/12/10 06:56:04;;;;;;;31.23;6.05;;;8.70;99.90;;;8.10;100.00;100951.03;4152531;28;20022;-76
2023/12/10 06:58:05;;;;;;;39.88;5.40;;;8.70;99.90;;;8.07;100.00;100945.22;4152492;28;20030;-76
2023/12/10 07:00:06;;;;;;;29.83;5.78;;;8.70;99.90;;;8.02;100.00;100945.66;4151085;28;20073;-76
2023/12/10 07:02:07;;;;;;;32.33;7.22;;;8.70;99.90;;;8.01;100.00;100941.34;4152324;28;20065;-77
2023/12/10 07:04:08;;;;;;;34.25;5.22;;;8.60;99.90;;;7.97;100.00;100928.63;4150903;28;20048;-77
2023/12/10 07:06:09;;;;;;;40.13;6.78;;;8.60;99.90;;;7.97;100.00;100933.88;4141539;28;20061;-76
2023/12/10 07:08:10;;;;;;;38.20;5.40;;;8.60;99.90;;;7.96;100.00;100938.31;4152317;28;20088;-77
2023/12/10 07:10:11;;;;;;;24.67;4.90;;;8.60;99.90;;;7.93;100.00;100928.06;4152216;28;20030;-77
2023/12/10 07:12:12;;;;;;;35.47;6.35;;;8.60;99.90;;;7.93;100.00;100927.22;4150823;28;20034;-77
2023/12/10 07:14:13;;;;;;;40.88;7.03;;;8.50;99.90;;;7.92;100.00;100917.69;4152147;28;20034;-77
2023/12/10 07:16:14;;;;;;;22.52;4.20;;;8.50;99.90;;;7.92;100.00;100917.69;4152040;28;20046;-77
2023/12/10 07:18:15;;;;;;;25.48;4.95;;;8.50;99.90;;;7.88;100.00;100918.94;4150833;28;20065;-77
2023/12/10 07:20:16;;;;;;;35.67;6.50;;;8.50;99.90;;;7.92;100.00;100922.94;4151205;28;20085;-76
2023/12/10 07:22:17;;;;;;;31.23;6.43;;;8.50;99.90;;;7.90;100.00;100917.81;4152290;28;20037;-76
2023/12/10 07:24:18;;;;;;;39.42;5.90;;;8.50;99.90;;;7.89;100.00;100910.06;4152181;28;20450;-76
2023/12/10 07:26:25;;;;;;;41.65;6.05;;;8.50;99.90;;;7.93;100.00;100911.47;4148599;28;20022;-76
2023/12/10 07:28:26;;;;;;;43.85;6.40;;;8.50;99.90;;;7.91;100.00;100908.16;4151303;28;20034;-77
2023/12/10 07:30:27;;;;;;;33.97;5.35;;;8.50;99.90;;;7.88;100.00;100897.91;4152184;28;20063;-76
2023/12/10 07:32:28;;;;;;;32.50;4.72;;;8.50;99.90;;;7.88;100.00;100897.91;4150817;28;20053;-76
2023/12/10 07:34:29;;;;;;;46.63;7.75;;;8.40;99.90;;;7.87;100.00;100897.09;4150545;28;20037;-77
2023/12/10 07:36:29;;;;;;;36.97;8.35;;;8.40;99.90;;;7.85;100.00;100882.44;4139315;28;20441;-76
2023/12/10 07:38:30;;;;;;;49.55;9.57;;;8.50;99.90;;;7.90;100.00;100880.22;4150921;28;20509;-77
2023/12/10 07:40:31;;;;;;;39.75;7.88;;;8.50;99.90;;;7.89;100.00;100891.69;4152101;28;20033;-77
2023/12/10 07:42:32;;;;;;;47.85;8.20;;;8.50;99.90;;;7.85;100.00;100887.69;4152028;28;20026;-76
2023/12/10 07:44:33;;;;;;;35.67;7.70;;;8.50;99.90;;;7.86;100.00;100879.66;4151862;28;20018;-77
2023/12/10 07:46:34;;;;;;;37.35;8.10;;;8.40;99.90;;;7.88;100.00;100871.66;4153903;28;20030;-76
2023/12/10 07:48:35;;;;;;;32.70;7.35;;;8.50;99.90;;;7.92;100.00;100875.66;4153816;28;20072;-77
2023/12/10 07:50:36;;;;;;;44.78;6.63;;;8.50;99.90;;;7.97;100.00;100873.47;4155143;28;20054;-77
2023/12/10 07:52:37;;;;;;;38.88;5.53;;;8.50;99.90;;;8.00;100.00;100876.66;4154368;28;20041;-76
2023/12/10 07:54:38;;;;;;;41.13;6.95;;;8.60;99.90;;;8.08;100.00;100865.44;4154096;28;20085;-77
2023/12/10 07:56:39;;;;;;;43.90;7.38;;;8.70;99.90;;;8.23;100.00;100864.09;4154089;28;20041;-77
2023/12/10 07:58:39;;;;;;;45.65;6.65;;;8.80;99.90;;;8.30;100.00;100857.34;4153829;28;20030;-76
2023/12/10 08:00:40;;;;;;;45.10;6.45;;;8.90;99.90;;;8.34;100.00;100854.28;4153793;28;20386;-76
2023/12/10 08:02:41;;;;;;;48.33;6.68;;;8.90;99.90;;;8.44;100.00;100846.41;4155331;28;20014;-76
2023/12/10 08:04:42;;;;;;;45.25;8.32;;;9.00;99.90;;;8.53;100.00;100855.25;4152841;28;20057;-76
2023/12/10 08:06:43;;;;;;;45.38;7.40;;;9.00;99.90;;;8.61;100.00;100850.94;4154966;28;20084;-76
2023/12/10 08:08:44;;;;;;;41.80;5.82;;;9.10;99.90;;;8.64;100.00;100858.56;4153549;28;20030;-76
2023/12/10 08:10:46;;;;;;;43.90;6.50;;;9.20;99.90;;;8.71;100.00;100856.19;4155060;28;20399;-76
2023/12/10 08:12:47;;;;;;;40.58;5.78;;;9.30;99.90;;;8.87;100.00;100856.41;4153672;28;20022;-76
2023/12/10 08:14:47;;;;;;;44.92;6.45;;;9.40;99.90;;;8.97;100.00;100840.63;4151067;28;20033;-76
2023/12/10 08:16:48;;;;;;;46.63;6.85;;;9.50;99.90;;;9.07;100.00;100846.69;4151866;28;20034;-76
2023/12/10 08:18:50;;;;;;;55.00;8.13;;;9.50;99.90;;;9.26;100.00;100846.59;4152892;28;20497;-76
2023/12/10 08:20:51;;;;;;;49.25;7.38;;;9.70;99.90;;;9.36;100.00;100832.44;4154192;28;20037;-76
2023/12/10 08:22:51;;;;;;;61.17;7.47;;;9.80;99.90;;;9.44;100.00;100845.69;4153836;28;20037;-76